Time;durP1;ratioP1;P1;durP2;ratioP2;P2;SDS_P1;SDS_P2;PMS_P1;PMS_P2;Temp;Humidity;BMP_temperature;BMP_pressure;BME280_temperature;BME280_humidity;BME280_pressure;Samples;Min_cycle;Max_cycle;Signal;HPM_P1;HPM_P2
2022/04/26 03:37:25;;;;;;;29.00;26.10;;;11.10;99.90;;;;;;6097135;23;20723;-88
2022/04/26 03:39:52;;;;;;;29.57;26.33;;;11.00;99.90;;;;;;6097010;23;20418;-87
2022/04/26 03:42:18;;;;;;;31.33;27.43;;;11.00;99.90;;;;;;6098818;23;20412;-87
2022/04/26 03:44:45;;;;;;;31.83;27.43;;;10.90;99.90;;;;;;6096266;23;20405;-87
2022/04/26 03:47:12;;;;;;;32.90;26.80;;;10.90;99.90;;;;;;6095931;23;20412;-87
2022/04/26 03:49:39;;;;;;;30.63;26.60;;;10.90;99.90;;;;;;6115399;23;20409;-85
2022/04/26 03:52:07;;;;;;;28.50;25.53;;;10.90;99.90;;;;;;6100331;23;20415;-88
2022/04/26 03:54:35;;;;;;;27.00;22.20;;;10.90;99.90;;;;;;6096255;23;20448;-88
2022/04/26 03:57:02;;;;;;;28.27;23.00;;;10.90;99.90;;;;;;6096359;23;20441;-88
2022/04/26 03:59:29;;;;;;;29.83;25.90;;;10.90;99.90;;;;;;6097385;23;20400;-86
2022/04/26 04:01:56;;;;;;;27.03;24.13;;;10.90;99.90;;;;;;6115236;23;20464;-85
2022/04/26 04:04:22;;;;;;;24.70;21.53;;;10.90;99.90;;;;;;6097259;23;20413;-85
2022/04/26 04:06:49;;;;;;;21.07;18.90;;;10.90;99.90;;;;;;6095121;23;20447;-87
2022/04/26 04:09:17;;;;;;;25.40;22.03;;;10.90;99.90;;;;;;6096485;23;20416;-86
2022/04/26 04:11:44;;;;;;;23.50;21.17;;;10.90;99.90;;;;;;6096034;23;20391;-86
2022/04/26 04:14:11;;;;;;;23.90;21.47;;;10.90;99.90;;;;;;6096163;23;20448;-86
2022/04/26 04:16:37;;;;;;;22.30;20.00;;;10.90;99.90;;;;;;6119923;23;20444;-80
2022/04/26 04:19:19;;;;;;;25.00;22.17;;;10.90;99.90;;;;;;6127797;23;20405;-81
2022/04/26 04:21:47;;;;;;;27.30;23.87;;;10.90;99.90;;;;;;6133890;23;20410;-82
2022/04/26 04:24:13;;;;;;;26.00;23.20;;;10.90;99.90;;;;;;6135754;23;20399;-81
2022/04/26 04:26:42;;;;;;;24.83;22.00;;;10.90;99.90;;;;;;6116960;23;20448;-81
2022/04/26 04:29:09;;;;;;;22.40;20.10;;;10.90;99.90;;;;;;6109174;23;20405;-81
2022/04/26 04:31:35;;;;;;;24.90;21.93;;;10.90;99.90;;;;;;6108515;23;20454;-83
2022/04/26 04:34:02;;;;;;;25.47;22.77;;;10.90;99.90;;;;;;6100812;23;20444;-83
2022/04/26 04:36:30;;;;;;;27.13;23.60;;;10.90;99.90;;;;;;6101341;23;20424;-84
2022/04/26 04:38:56;;;;;;;24.17;21.70;;;10.90;99.90;;;;;;6108669;23;20408;-81
2022/04/26 04:41:24;;;;;;;26.43;21.93;;;10.80;99.90;;;;;;6105804;23;20436;-83
2022/04/26 04:43:53;;;;;;;26.50;23.70;;;10.90;99.90;;;;;;6104924;23;20405;-81
2022/04/26 04:46:19;;;;;;;24.23;21.10;;;10.80;99.90;;;;;;6104609;23;20429;-83
2022/04/26 04:48:46;;;;;;;27.83;24.90;;;10.80;99.90;;;;;;6104893;23;20417;-83
2022/04/26 04:51:13;;;;;;;26.27;22.43;;;10.80;99.90;;;;;;6096597;23;20463;-81
2022/04/26 04:53:39;;;;;;;26.73;23.90;;;10.90;99.90;;;;;;6096190;23;20444;-83
2022/04/26 04:56:09;;;;;;;24.30;21.90;;;10.90;99.90;;;;;;6097745;23;20939;-84
2022/04/26 04:58:36;;;;;;;25.40;22.30;;;10.90;99.90;;;;;;6097554;23;20440;-84
2022/04/26 05:01:04;;;;;;;25.10;22.50;;;10.90;99.90;;;;;;6096587;23;20475;-82
2022/04/26 05:03:31;;;;;;;26.40;23.60;;;10.90;99.90;;;;;;6096282;23;20410;-82
2022/04/26 05:05:58;;;;;;;24.80;22.17;;;10.90;99.90;;;;;;6095993;23;21029;-83
2022/04/26 05:08:25;;;;;;;25.63;22.93;;;10.90;99.90;;;;;;6097051;23;20413;-83
2022/04/26 05:10:52;;;;;;;26.13;23.27;;;10.90;99.90;;;;;;6098009;23;20444;-83
2022/04/26 05:13:19;;;;;;;25.73;23.07;;;10.90;99.90;;;;;;6096593;23;20417;-82
2022/04/26 05:15:46;;;;;;;27.03;23.60;;;11.00;99.90;;;;;;6096551;23;20451;-83
2022/04/26 05:18:14;;;;;;;27.23;24.33;;;11.00;99.90;;;;;;6097274;23;20466;-83
2022/04/26 05:20:41;;;;;;;27.83;24.83;;;11.00;99.90;;;;;;6098807;23;20413;-82
2022/04/26 05:25:54;;;;;;;28.90;25.50;;;11.00;99.90;;;;;;6070891;23;20417;-81
2022/04/26 05:28:21;;;;;;;29.97;26.90;;;11.10;99.90;;;;;;6109087;23;20404;-82
2022/04/26 05:30:47;;;;;;;29.90;25.50;;;11.10;99.90;;;;;;6114899;23;20465;-83
2022/04/26 05:33:15;;;;;;;26.87;23.93;;;11.10;99.90;;;;;;6104409;23;20537;-82
2022/04/26 05:35:42;;;;;;;29.17;26.20;;;11.00;99.90;;;;;;6100563;23;20795;-81
2022/04/26 05:38:09;;;;;;;29.80;26.87;;;11.00;99.90;;;;;;6099707;23;20423;-84
2022/04/26 05:40:36;;;;;;;29.47;26.30;;;11.10;99.90;;;;;;6099358;23;20487;-80
2022/04/26 05:43:03;;;;;;;28.67;25.63;;;11.10;99.90;;;;;;6104851;23;20405;-80
2022/04/26 05:45:29;;;;;;;26.67;23.80;;;11.10;99.90;;;;;;6106274;23;20961;-80
2022/04/26 05:47:56;;;;;;;28.33;25.33;;;11.10;99.90;;;;;;6100032;23;20408;-81
2022/04/26 05:50:24;;;;;;;28.40;25.50;;;11.10;99.90;;;;;;6097544;23;20420;-82
2022/04/26 05:52:51;;;;;;;29.20;25.23;;;11.10;99.90;;;;;;6098316;23;20401;-83
2022/04/26 05:55:18;;;;;;;24.83;22.23;;;11.10;99.90;;;;;;6097700;23;20466;-81
2022/04/26 05:57:45;;;;;;;27.20;23.87;;;11.10;99.90;;;;;;6099100;23;20411;-82
2022/04/26 06:00:14;;;;;;;28.70;25.63;;;11.20;99.90;;;;;;6098983;23;20419;-83
2022/04/26 06:02:41;;;;;;;26.60;23.50;;;11.10;99.90;;;;;;6098667;23;20420;-81
2022/04/26 06:05:09;;;;;;;25.00;22.50;;;11.10;99.90;;;;;;6098719;23;20409;-83
2022/04/26 06:07:37;;;;;;;26.87;23.97;;;11.10;99.90;;;;;;6097470;23;20456;-83
2022/04/26 06:10:04;;;;;;;25.37;22.67;;;11.10;99.90;;;;;;6106143;23;20404;-82
2022/04/26 06:12:31;;;;;;;23.83;21.53;;;11.10;99.90;;;;;;6105835;23;20406;-83
2022/04/26 06:14:59;;;;;;;24.53;21.97;;;11.10;99.90;;;;;;6099942;23;20436;-82
2022/04/26 06:17:26;;;;;;;25.93;23.33;;;11.10;99.90;;;;;;6105815;23;20417;-83
2022/04/26 06:19:53;;;;;;;25.30;22.70;;;11.10;99.90;;;;;;6100500;23;20745;-82
2022/04/26 06:22:20;;;;;;;26.07;21.83;;;11.00;99.90;;;;;;6098840;23;20750;-82
2022/04/26 06:24:50;;;;;;;23.73;21.20;;;11.00;99.90;;;;;;6098757;23;20413;-82
2022/04/26 06:27:17;;;;;;;25.13;22.57;;;11.10;99.90;;;;;;6098690;23;20474;-82
2022/04/26 06:29:44;;;;;;;25.73;23.03;;;11.10;99.90;;;;;;6098797;23;20414;-83
2022/04/26 06:32:10;;;;;;;26.83;24.03;;;11.10;99.90;;;;;;6098669;23;20447;-83
2022/04/26 06:34:37;;;;;;;26.37;23.17;;;11.10;99.90;;;;;;6097601;23;20499;-82
2022/04/26 06:37:04;;;;;;;27.37;24.17;;;11.10;99.90;;;;;;6098015;23;20431;-83
2022/04/26 06:39:31;;;;;;;27.00;23.43;;;11.10;99.90;;;;;;6096339;23;20440;-82
2022/04/26 06:41:59;;;;;;;29.33;25.03;;;11.20;99.90;;;;;;6099363;23;20718;-81
2022/04/26 06:44:26;;;;;;;25.63;23.03;;;11.20;99.90;;;;;;6109155;23;20491;-80
2022/04/26 06:46:52;;;;;;;24.03;21.53;;;11.20;99.90;;;;;;6098350;23;21162;-83
2022/04/26 06:49:19;;;;;;;24.57;21.97;;;11.20;99.90;;;;;;6098291;23;20418;-82
2022/04/26 06:51:46;;;;;;;25.83;23.07;;;11.20;99.90;;;;;;6098651;23;20483;-83
2022/04/26 06:54:13;;;;;;;26.23;23.13;;;11.30;99.90;;;;;;6097754;23;21059;-82
2022/04/26 06:56:41;;;;;;;28.47;24.50;;;11.30;99.90;;;;;;6098137;23;20430;-81
2022/04/26 06:59:09;;;;;;;24.83;22.17;;;11.40;99.90;;;;;;6099951;23;20410;-82
2022/04/26 07:01:35;;;;;;;26.90;23.03;;;11.30;99.90;;;;;;6099284;23;20791;-82
2022/04/26 07:04:02;;;;;;;24.57;22.10;;;11.30;99.90;;;;;;6098581;23;20460;-82
2022/04/26 07:06:29;;;;;;;24.80;21.93;;;11.30;99.90;;;;;;6098525;23;20436;-82
2022/04/26 07:08:57;;;;;;;24.20;21.63;;;11.30;99.90;;;;;;6098928;23;20408;-82
2022/04/26 07:11:23;;;;;;;23.60;21.20;;;11.40;99.90;;;;;;6101326;23;20420;-80
2022/04/26 07:13:52;;;;;;;23.73;21.47;;;11.40;99.90;;;;;;6077137;23;20526;-80
2022/04/26 07:16:20;;;;;;;23.43;20.87;;;11.40;99.90;;;;;;6100802;23;20445;-80
2022/04/26 07:18:47;;;;;;;24.87;22.17;;;11.50;99.90;;;;;;6098992;23;21203;-81
2022/04/26 07:21:13;;;;;;;23.97;21.57;;;11.50;99.90;;;;;;6102126;23;20413;-83
2022/04/26 07:23:40;;;;;;;24.50;20.77;;;11.50;99.90;;;;;;6097865;23;20408;-82
2022/04/26 07:26:07;;;;;;;23.17;20.77;;;11.60;99.90;;;;;;6098492;23;20424;-81
2022/04/26 07:28:34;;;;;;;23.83;21.47;;;11.80;99.90;;;;;;6099679;23;20403;-83
2022/04/26 07:31:00;;;;;;;20.93;18.97;;;12.00;99.90;;;;;;6098322;23;20416;-82
2022/04/26 07:36:12;;;;;;;16.43;14.93;;;12.50;99.90;;;;;;6096521;23;20482;-83
2022/04/26 07:38:39;;;;;;;13.90;12.70;;;12.90;99.90;;;;;;6097030;23;20401;-83
2022/04/26 07:41:07;;;;;;;13.17;12.07;;;13.20;99.90;;;;;;6100401;23;20975;-81
2022/04/26 07:43:34;;;;;;;15.43;14.03;;;13.40;99.90;;;;;;6106539;23;20805;-81
2022/04/26 07:46:01;;;;;;;15.60;14.10;;;13.50;99.90;;;;;;6101891;23;20425;-82
2022/04/26 07:48:30;;;;;;;16.60;15.10;;;13.40;99.90;;;;;;6100677;23;20398;-83
2022/04/26 07:50:57;;;;;;;17.43;15.63;;;13.40;99.90;;;;;;6099236;23;20406;-82
2022/04/26 07:53:25;;;;;;;14.17;12.97;;;13.40;99.90;;;;;;6099191;23;20408;-82
2022/04/26 07:55:52;;;;;;;12.73;11.63;;;13.50;99.90;;;;;;6098207;23;20963;-81
2022/04/26 07:58:19;;;;;;;14.00;12.63;;;13.60;99.90;;;;;;6106741;23;20422;-81
2022/04/26 08:00:45;;;;;;;13.37;12.07;;;13.70;99.90;;;;;;6120822;23;20457;-81
2022/04/26 08:03:13;;;;;;;13.57;12.37;;;13.80;99.90;;;;;;6114652;23;20413;-81
2022/04/26 08:05:41;;;;;;;12.03;11.00;;;13.80;99.90;;;;;;6123743;23;20458;-83
2022/04/26 08:08:08;;;;;;;13.60;12.30;;;13.80;99.90;;;;;;6121269;23;20402;-83
2022/04/26 08:10:36;;;;;;;14.93;12.93;;;13.80;99.90;;;;;;6116940;23;20394;-83
2022/04/26 08:13:03;;;;;;;13.37;12.07;;;13.90;99.90;;;;;;6107498;23;20514;-83
2022/04/26 08:15:30;;;;;;;13.40;12.37;;;13.80;99.90;;;;;;6107570;23;20453;-83
2022/04/26 08:17:57;;;;;;;12.67;11.40;;;13.60;99.90;;;;;;6119316;23;20392;-83
2022/04/26 08:20:25;;;;;;;12.73;11.53;;;13.60;99.90;;;;;;6112839;23;20433;-84
2022/04/26 08:22:53;;;;;;;11.17;10.20;;;13.60;99.90;;;;;;6111857;23;20439;-83
2022/04/26 08:28:04;;;;;;;12.23;11.23;;;13.50;99.90;;;;;;6102639;23;20400;-82
2022/04/26 08:30:30;;;;;;;11.30;10.30;;;13.60;99.90;;;;;;6101227;23;20416;-81
2022/04/26 08:32:57;;;;;;;13.90;12.53;;;13.90;99.90;;;;;;6101096;23;20400;-83
2022/04/26 08:35:27;;;;;;;11.70;10.60;;;14.00;99.90;;;;;;6101882;23;20448;-82
2022/04/26 08:37:55;;;;;;;12.63;11.53;;;13.90;99.90;;;;;;6102589;23;20405;-82
2022/04/26 08:40:21;;;;;;;12.63;11.33;;;14.10;99.90;;;;;;6103005;23;20417;-83
2022/04/26 08:42:51;;;;;;;13.23;12.10;;;14.30;99.90;;;;;;6102086;23;20407;-82
2022/04/26 08:45:20;;;;;;;10.93;9.90;;;14.40;99.90;;;;;;6100973;23;20430;-82
2022/04/26 08:53:20;;;;;;;11.20;10.30;;;15.90;99.90;;;;;;6100493;23;20403;-83
2022/04/26 08:55:48;;;;;;;10.83;9.80;;;16.10;99.90;;;;;;6104281;23;20528;-82
2022/04/26 08:58:15;;;;;;;12.23;11.23;;;16.30;99.90;;;;;;6101148;23;20400;-82
2022/04/26 09:01:03;;;;;;;11.63;10.63;;;16.20;99.90;;;;;;6102297;23;20487;-80
2022/04/26 09:03:32;;;;;;;13.27;11.97;;;16.30;99.70;;;;;;6106774;23;20416;-82
2022/04/26 09:06:09;;;;;;;13.40;12.00;;;16.10;97.80;;;;;;6103149;23;20484;-82
2022/04/26 09:08:37;;;;;;;11.83;10.67;;;16.10;96.90;;;;;;6100954;23;20389;-82
2022/04/26 09:11:05;;;;;;;12.67;11.53;;;15.90;97.30;;;;;;6102626;23;20388;-82
2022/04/26 09:13:41;;;;;;;12.00;10.90;;;15.70;96.60;;;;;;6100213;23;20444;-80
2022/04/26 09:16:18;;;;;;;10.10;9.20;;;15.40;97.10;;;;;;6099990;23;20459;-82
2022/04/26 09:18:54;;;;;;;12.03;10.93;;;15.20;95.60;;;;;;6101152;23;20743;-81
2022/04/26 09:21:21;;;;;;;9.93;9.13;;;15.30;95.10;;;;;;6100833;23;20396;-81
2022/04/26 09:23:48;;;;;;;11.30;9.07;;;15.30;95.40;;;;;;6104083;23;20404;-82
2022/04/26 09:26:17;;;;;;;10.57;9.57;;;15.40;95.40;;;;;;6119481;23;20407;-81
2022/04/26 09:28:45;;;;;;;13.30;10.43;;;15.40;95.10;;;;;;6105282;23;20397;-83
2022/04/26 09:31:18;;;;;;;11.60;10.20;;;15.50;94.90;;;;;;6100900;23;20737;-83
2022/04/26 09:33:47;;;;;;;11.63;10.63;;;15.70;94.20;;;;;;6099950;23;20393;-82
2022/04/26 09:36:17;;;;;;;10.17;9.17;;;15.90;94.80;;;;;;6099856;23;20810;-81
2022/04/26 09:38:50;;;;;;;11.20;10.20;;;16.50;94.10;;;;;;6099916;23;20405;-82
2022/04/26 09:41:17;;;;;;;9.90;8.90;;;17.20;93.10;;;;;;6100478;23;20400;-83
2022/04/26 09:43:45;;;;;;;9.67;8.87;;;17.30;90.80;;;;;;6099331;23;20405;-82
2022/04/26 09:46:12;;;;;;;10.40;9.40;;;17.00;90.10;;;;;;6099427;23;20949;-82
2022/04/26 09:48:39;;;;;;;9.63;8.73;;;16.90;90.70;;;;;;6099132;23;20411;-82
2022/04/26 09:51:07;;;;;;;10.40;9.40;;;17.40;90.90;;;;;;6098919;23;20410;-83
2022/04/26 09:53:36;;;;;;;10.90;9.77;;;17.60;91.00;;;;;;6099248;23;20408;-83
2022/04/26 09:56:04;;;;;;;10.00;9.13;;;17.70;90.10;;;;;;6098604;23;20503;-81
2022/04/26 09:58:34;;;;;;;11.10;10.10;;;17.80;86.90;;;;;;6098830;23;20949;-83
2022/04/26 10:01:04;;;;;;;10.17;9.17;;;18.80;85.50;;;;;;6100001;23;20782;-83
2022/04/26 10:03:32;;;;;;;9.33;8.53;;;20.10;80.10;;;;;;6106423;23;20415;-81
2022/04/26 10:06:03;;;;;;;8.73;7.90;;;22.00;73.80;;;;;;6108859;23;20423;-83
2022/04/26 10:08:32;;;;;;;8.40;7.80;;;22.10;67.30;;;;;;6105203;23;20448;-83
2022/04/26 10:11:00;;;;;;;7.30;6.70;;;23.10;65.00;;;;;;6104513;23;20501;-83
2022/04/26 10:13:39;;;;;;;7.00;6.50;;;24.70;58.50;;;;;;6101782;23;20416;-83
2022/04/26 10:16:07;;;;;;;6.70;6.20;;;24.10;56.00;;;;;;6100225;23;20450;-82
2022/04/26 10:18:38;;;;;;;8.90;7.47;;;23.40;56.00;;;;;;6133650;23;20544;-89
2022/04/26 10:21:06;;;;;;;6.63;6.00;;;22.20;56.70;;;;;;6136253;23;20381;-88
2022/04/26 10:24:06;;;;;;;9.43;6.27;;;21.30;57.60;;;;;;6152958;23;20390;-87
2022/04/26 10:26:35;;;;;;;7.13;6.50;;;21.00;58.40;;;;;;6123825;23;20490;-88
2022/04/26 10:29:06;;;;;;;7.60;5.60;;;20.60;58.20;;;;;;6118600;23;20412;-88
2022/04/26 10:31:38;;;;;;;6.50;5.90;;;20.60;59.10;;;;;;6109104;23;20393;-88
2022/04/26 10:34:27;;;;;;;8.40;7.60;;;20.70;59.90;;;;;;6099423;23;20506;-88
2022/04/26 10:36:54;;;;;;;6.03;5.40;;;21.40;58.70;;;;;;6100480;23;20899;-88
2022/04/26 10:39:32;;;;;;;6.13;5.63;;;21.70;57.10;;;;;;6104772;23;20390;-89
2022/04/26 10:42:29;;;;;;;6.10;5.60;;;23.30;56.40;;;;;;6124455;23;20377;-89
2022/04/26 10:45:11;;;;;;;6.00;5.50;;;26.20;52.50;;;;;;6120933;23;20396;-89
2022/04/26 10:47:40;;;;;;;7.40;5.80;;;28.90;47.30;;;;;;6120655;23;20477;-87
2022/04/26 10:50:09;;;;;;;7.73;5.20;;;31.10;43.80;;;;;;6153628;23;20460;-88
2022/04/26 10:52:44;;;;;;;6.07;5.50;;;31.80;40.60;;;;;;6146795;23;20460;-89
2022/04/26 10:55:15;;;;;;;6.20;5.63;;;30.80;39.30;;;;;;6150581;23;20835;-88
2022/04/26 10:57:45;;;;;;;6.07;5.57;;;28.80;41.10;;;;;;6125634;23;20492;-87
2022/04/26 11:00:15;;;;;;;5.97;5.40;;;26.50;44.00;;;;;;6102148;23;20404;-89
2022/04/26 11:05:16;;;;;;;6.17;5.67;;;23.90;47.80;;;;;;6132631;23;20449;-83
2022/04/26 11:07:45;;;;;;;5.93;5.43;;;23.10;49.40;;;;;;6134385;23;20513;-82
2022/04/26 11:10:14;;;;;;;6.13;5.40;;;22.50;49.80;;;;;;6135595;23;20413;-83
2022/04/26 11:12:41;;;;;;;6.80;5.20;;;22.00;50.40;;;;;;6133829;23;20464;-83
2022/04/26 11:15:11;;;;;;;5.20;4.80;;;23.70;50.40;;;;;;6110844;23;20937;-82
2022/04/26 11:17:39;;;;;;;4.40;4.00;;;27.10;45.20;;;;;;6107685;23;20389;-83
2022/04/26 11:20:12;;;;;;;5.60;4.90;;;28.60;41.90;;;;;;6107960;23;20874;-83
2022/04/26 11:22:44;;;;;;;5.73;5.33;;;27.70;40.50;;;;;;6110863;23;20467;-82
2022/04/26 11:28:00;;;;;;;9.03;8.33;;;23.00;50.70;;;;;;6106479;23;20403;-81
2022/04/26 11:30:30;;;;;;;10.03;9.07;;;20.70;54.90;;;;;;6104520;23;20370;-82
2022/04/26 11:32:57;;;;;;;10.43;9.57;;;19.30;59.70;;;;;;6102509;23;20435;-82
2022/04/26 11:35:24;;;;;;;9.50;8.80;;;18.40;64.50;;;;;;6100446;23;20427;-81
2022/04/26 11:37:53;;;;;;;7.30;6.80;;;18.80;66.30;;;;;;6102770;23;20419;-82
2022/04/26 11:40:28;;;;;;;9.10;8.40;;;21.10;61.70;;;;;;6104688;23;20431;-82
2022/04/26 11:42:56;;;;;;;7.73;7.13;;;22.60;57.00;;;;;;6104121;23;20396;-82
2022/04/26 11:45:22;;;;;;;7.27;6.67;;;23.80;55.20;;;;;;6104265;23;20466;-83
2022/04/26 11:47:51;;;;;;;6.53;6.03;;;25.50;52.00;;;;;;6080087;23;20395;-83
2022/04/26 11:50:20;;;;;;;7.00;6.40;;;26.50;48.70;;;;;;6106800;23;20487;-82
2022/04/26 11:52:48;;;;;;;6.50;5.93;;;28.20;45.40;;;;;;6104901;23;20744;-82
2022/04/26 11:55:26;;;;;;;6.40;5.90;;;26.50;45.90;;;;;;6109618;23;20896;-82
2022/04/26 11:58:04;;;;;;;6.40;5.80;;;24.80;48.00;;;;;;6108349;23;20404;-82
2022/04/26 12:00:32;;;;;;;6.43;5.80;;;23.40;50.00;;;;;;6116436;23;20389;-82
2022/04/26 12:03:00;;;;;;;5.70;5.20;;;22.90;51.10;;;;;;6107007;23;20434;-82
2022/04/26 12:05:27;;;;;;;7.50;6.90;;;21.50;52.30;;;;;;6112593;23;20453;-80
2022/04/26 12:07:54;;;;;;;6.00;5.40;;;20.70;54.00;;;;;;6115882;23;20419;-81
2022/04/26 12:10:29;;;;;;;5.63;5.23;;;21.10;55.70;;;;;;6103623;23;20405;-82
2022/04/26 12:12:57;;;;;;;5.97;5.20;;;23.70;53.50;;;;;;6104908;23;20491;-82
2022/04/26 12:15:28;;;;;;;5.63;5.07;;;25.60;48.80;;;;;;6110395;23;20406;-81
2022/04/26 12:18:14;;;;;;;5.30;4.50;;;27.20;46.30;;;;;;6123894;23;20396;-80
2022/04/26 12:20:57;;;;;;;4.63;4.30;;;27.80;43.40;;;;;;6122013;23;20449;-81
2022/04/26 12:23:26;;;;;;;6.13;5.53;;;25.60;44.00;;;;;;6106543;23;20429;-81
2022/04/26 12:25:53;;;;;;;6.03;5.53;;;24.30;45.70;;;;;;6100729;23;20444;-81
2022/04/26 12:28:20;;;;;;;8.50;7.80;;;22.90;47.90;;;;;;6101663;23;20435;-82
2022/04/26 12:30:47;;;;;;;6.87;6.20;;;21.70;49.80;;;;;;6110642;23;20555;-81
2022/04/26 12:33:30;;;;;;;8.00;7.20;;;20.70;52.00;;;;;;6115847;23;20439;-82
2022/04/26 12:36:02;;;;;;;8.97;8.27;;;19.60;54.60;;;;;;6107953;23;20385;-81
2022/04/26 12:38:29;;;;;;;9.17;8.37;;;18.80;57.00;;;;;;6107356;23;20470;-82
2022/04/26 12:41:04;;;;;;;7.33;6.73;;;18.10;58.90;;;;;;6103968;23;20408;-82
2022/04/26 12:43:32;;;;;;;7.50;6.80;;;17.70;60.70;;;;;;6103431;23;20412;-82
2022/04/26 12:46:01;;;;;;;6.10;5.60;;;17.40;63.10;;;;;;6105092;23;20775;-82
2022/04/26 12:51:20;;;;;;;4.37;3.90;;;16.70;59.70;;;;;;6107864;23;20391;-80
2022/04/26 12:53:48;;;;;;;4.90;3.10;;;16.40;59.80;;;;;;6123021;23;20424;-81
2022/04/26 12:56:15;;;;;;;3.63;3.33;;;15.90;61.30;;;;;;6115383;23;20409;-81
2022/04/26 12:58:43;;;;;;;7.03;4.10;;;15.40;66.60;;;;;;6113589;23;20408;-81
2022/04/26 13:01:11;;;;;;;4.40;3.50;;;15.10;70.30;;;;;;6118013;23;20440;-82
2022/04/26 13:03:41;;;;;;;3.90;3.60;;;14.80;72.70;;;;;;6107642;23;20432;-82
2022/04/26 13:06:10;;;;;;;4.23;3.43;;;14.60;73.90;;;;;;6103095;23;20448;-81
2022/04/26 13:08:38;;;;;;;3.97;3.67;;;14.50;76.60;;;;;;6103554;23;20581;-80
2022/04/26 13:11:05;;;;;;;4.00;3.70;;;14.50;78.50;;;;;;6105237;23;20415;-80
2022/04/26 13:13:33;;;;;;;3.80;3.50;;;14.50;80.70;;;;;;6107775;23;20728;-80
2022/04/26 13:16:00;;;;;;;3.47;3.20;;;14.50;81.20;;;;;;6105575;23;20707;-81
2022/04/26 13:18:28;;;;;;;4.73;4.33;;;14.60;81.40;;;;;;6103419;23;20782;-82
2022/04/26 13:20:57;;;;;;;2.83;2.60;;;14.80;80.30;;;;;;6104121;23;20397;-83
2022/04/26 13:23:24;;;;;;;3.73;2.70;;;15.10;79.40;;;;;;6104144;23;20432;-82
2022/04/26 13:25:51;;;;;;;4.97;4.47;;;15.30;78.00;;;;;;6103838;23;20445;-82
2022/04/26 13:28:18;;;;;;;3.00;2.70;;;15.70;77.50;;;;;;6103978;23;20397;-81
2022/04/26 13:30:45;;;;;;;7.00;5.60;;;15.70;73.20;;;;;;6103661;23;20413;-82
2022/04/26 13:33:12;;;;;;;3.57;3.17;;;15.80;74.60;;;;;;6107129;23;20433;-82
2022/04/26 13:35:39;;;;;;;2.97;2.67;;;16.30;74.70;;;;;;6107717;23;20400;-82
2022/04/26 13:38:11;;;;;;;2.20;2.00;;;17.80;72.70;;;;;;6104941;23;20418;-81
2022/04/26 13:40:39;;;;;;;2.40;2.20;;;20.50;65.80;;;;;;6104031;23;20410;-81
2022/04/26 13:43:07;;;;;;;3.00;1.83;;;22.10;58.00;;;;;;6104623;23;20451;-81
2022/04/26 13:45:34;;;;;;;2.57;2.37;;;23.80;54.60;;;;;;6107243;23;20415;-83
2022/04/26 13:48:02;;;;;;;2.90;2.17;;;24.60;51.20;;;;;;6107041;23;20418;-81
2022/04/26 13:50:29;;;;;;;4.03;2.57;;;25.90;47.80;;;;;;6118524;23;20408;-81
2022/04/26 13:52:57;;;;;;;2.70;2.50;;;26.30;47.20;;;;;;6116241;23;20405;-83
2022/04/26 13:55:26;;;;;;;3.07;2.87;;;26.40;46.30;;;;;;6107882;23;20405;-82
2022/04/26 13:57:54;;;;;;;2.93;2.73;;;27.50;45.20;;;;;;6106929;23;20409;-83
2022/04/26 14:00:21;;;;;;;3.53;3.23;;;26.30;45.90;;;;;;6105304;23;20737;-82
2022/04/26 14:02:48;;;;;;;3.80;3.50;;;25.50;45.90;;;;;;6109286;23;20400;-82
2022/04/26 14:05:16;;;;;;;3.10;2.80;;;24.00;47.00;;;;;;6106977;23;20444;-83
2022/04/26 14:07:43;;;;;;;4.07;3.43;;;22.40;50.10;;;;;;6104824;23;20438;-82
2022/04/26 14:10:10;;;;;;;3.60;3.03;;;23.10;51.00;;;;;;6116203;23;20415;-80
2022/04/26 14:12:38;;;;;;;4.40;3.90;;;23.70;49.60;;;;;;6117804;23;20402;-80
2022/04/26 14:23:19;;;;;;;5.07;3.90;;;23.60;46.10;;;;;;6114238;23;20469;-82
2022/04/26 14:25:46;;;;;;;4.53;4.13;;;21.80;50.00;;;;;;6104077;23;20420;-81
2022/04/26 14:28:14;;;;;;;7.53;6.83;;;21.30;51.40;;;;;;6104588;23;20943;-83
2022/04/26 14:30:41;;;;;;;11.40;9.20;;;20.20;52.40;;;;;;6104579;23;20411;-83
2022/04/26 14:33:08;;;;;;;6.03;5.43;;;19.50;55.20;;;;;;6109085;23;20429;-83
2022/04/26 14:35:35;;;;;;;6.87;4.67;;;18.80;56.50;;;;;;6103984;23;20413;-83
2022/04/26 14:38:02;;;;;;;5.00;4.50;;;19.20;56.90;;;;;;6103351;23;20476;-83
2022/04/26 14:40:30;;;;;;;3.90;3.60;;;19.90;54.80;;;;;;6103788;23;20415;-83
2022/04/26 14:42:56;;;;;;;3.90;3.60;;;19.90;54.20;;;;;;6103734;23;20418;-83
2022/04/26 14:45:24;;;;;;;4.20;3.80;;;19.50;55.10;;;;;;6105583;23;20409;-83
2022/04/26 14:47:51;;;;;;;5.60;4.70;;;19.10;55.60;;;;;;6107344;23;20444;-83
2022/04/26 14:50:18;;;;;;;4.30;3.90;;;19.60;55.40;;;;;;6106730;23;20507;-82
2022/04/26 14:52:45;;;;;;;4.53;3.30;;;20.60;54.10;;;;;;6105550;23;20420;-82
2022/04/26 14:55:13;;;;;;;4.10;3.73;;;21.90;51.80;;;;;;6107940;23;20441;-82
2022/04/26 14:57:40;;;;;;;3.80;3.50;;;22.20;49.30;;;;;;6103014;23;20748;-83
2022/04/26 15:00:08;;;;;;;4.30;3.63;;;22.90;49.00;;;;;;6116934;23;20396;-79
2022/04/26 15:02:40;;;;;;;6.00;5.40;;;22.60;48.20;;;;;;6113742;23;20408;-83
2022/04/26 15:05:08;;;;;;;3.73;3.43;;;21.80;48.90;;;;;;6104457;23;20459;-82
2022/04/26 15:10:16;;;;;;;4.03;3.37;;;20.20;50.30;;;;;;6112241;23;20403;-81
2022/04/26 15:18:13;;;;;;;3.53;2.50;;;18.20;54.70;;;;;;6117119;23;20394;-82
2022/04/26 15:20:48;;;;;;;3.60;3.30;;;18.20;55.20;;;;;;6105024;23;20486;-82
2022/04/26 15:23:15;;;;;;;3.20;2.90;;;18.10;55.60;;;;;;6116223;23;20428;-81
2022/04/26 15:25:48;;;;;;;3.50;3.20;;;17.80;55.80;;;;;;6117009;23;20423;-82
2022/04/26 15:28:15;;;;;;;2.90;2.67;;;17.50;56.70;;;;;;6105758;23;20433;-82
2022/04/26 15:30:43;;;;;;;5.57;3.93;;;17.10;57.50;;;;;;6103277;23;20414;-82
2022/04/26 15:33:14;;;;;;;3.80;3.50;;;16.70;58.70;;;;;;6104186;23;20487;-88
2022/04/26 15:35:42;;;;;;;4.33;3.93;;;16.50;59.40;;;;;;6102163;23;20428;-83
2022/04/26 15:38:10;;;;;;;3.90;3.50;;;16.30;60.10;;;;;;6102914;23;20499;-82
2022/04/26 15:40:37;;;;;;;5.07;4.57;;;16.10;60.50;;;;;;6103821;23;20455;-82
2022/04/26 15:43:06;;;;;;;3.00;2.70;;;16.00;62.90;;;;;;6103768;23;20456;-83
2022/04/26 15:45:34;;;;;;;3.50;3.20;;;15.80;64.00;;;;;;6104222;23;20436;-82
2022/04/26 15:48:01;;;;;;;3.67;3.27;;;15.60;63.50;;;;;;6112961;23;20500;-83
2022/04/26 15:50:30;;;;;;;3.43;3.13;;;15.50;62.70;;;;;;6112579;23;20409;-82
2022/04/26 15:52:56;;;;;;;4.83;4.43;;;15.40;64.50;;;;;;6111032;23;20413;-81
2022/04/26 15:55:23;;;;;;;5.20;4.40;;;15.20;68.90;;;;;;6102808;23;20436;-82
2022/04/26 15:57:50;;;;;;;6.53;5.93;;;15.10;73.20;;;;;;6110657;23;20413;-80
2022/04/26 16:00:18;;;;;;;9.53;8.20;;;14.80;76.50;;;;;;6115721;23;20395;-82
2022/04/26 16:02:44;;;;;;;7.87;7.07;;;14.70;79.90;;;;;;6105407;23;20476;-83
2022/04/26 16:05:12;;;;;;;7.60;6.80;;;14.50;84.10;;;;;;6113691;23;20409;-81
2022/04/26 16:07:40;;;;;;;8.90;7.50;;;14.40;87.80;;;;;;6118555;23;20441;-80
2022/04/26 16:21:06;;;;;;;7.43;6.63;;;14.20;87.30;;;;;;6103273;23;20710;-82
2022/04/26 16:23:34;;;;;;;6.53;5.47;;;14.20;86.80;;;;;;6107166;23;20432;-82
2022/04/26 16:26:02;;;;;;;5.67;5.17;;;14.20;86.00;;;;;;6108957;23;20438;-82
2022/04/26 16:28:30;;;;;;;4.40;4.00;;;14.10;86.60;;;;;;6112120;23;20502;-81
2022/04/26 16:30:56;;;;;;;5.77;3.97;;;13.90;85.60;;;;;;6113610;23;20472;-81
2022/04/26 16:33:23;;;;;;;6.10;5.50;;;13.80;87.20;;;;;;6106995;23;20951;-83
2022/04/26 16:35:50;;;;;;;6.70;5.47;;;13.80;87.70;;;;;;6105757;23;20416;-83
2022/04/26 16:38:17;;;;;;;4.93;4.53;;;13.70;89.30;;;;;;6104420;23;20411;-83
2022/04/26 16:40:46;;;;;;;4.10;3.70;;;13.70;88.80;;;;;;6104720;23;20935;-82
2022/04/26 16:43:16;;;;;;;3.77;3.47;;;13.70;87.70;;;;;;6104575;23;20432;-83
2022/04/26 16:45:42;;;;;;;3.80;3.13;;;13.80;86.10;;;;;;6109900;23;20417;-82
2022/04/26 16:48:09;;;;;;;3.53;3.10;;;13.90;86.10;;;;;;6109972;23;20429;-83
2022/04/26 16:50:36;;;;;;;3.20;2.90;;;14.00;85.40;;;;;;6109399;23;20418;-84
2022/04/26 16:53:04;;;;;;;3.30;2.87;;;14.00;85.20;;;;;;6106933;23;20430;-83
2022/04/26 16:55:31;;;;;;;3.10;2.80;;;13.90;85.30;;;;;;6110051;23;20422;-82
2022/04/26 16:58:00;;;;;;;3.70;3.40;;;13.80;85.60;;;;;;6120312;23;20407;-81
2022/04/26 17:00:28;;;;;;;3.70;3.40;;;13.80;86.40;;;;;;6117840;23;20417;-83
2022/04/26 17:02:55;;;;;;;2.70;2.50;;;13.70;85.90;;;;;;6107312;23;20496;-83
2022/04/26 17:05:22;;;;;;;2.87;2.37;;;13.60;85.70;;;;;;6104631;23;20430;-83
2022/04/26 17:07:50;;;;;;;3.13;2.83;;;13.50;86.10;;;;;;6105225;23;20447;-82
2022/04/26 17:10:18;;;;;;;2.70;2.50;;;13.50;85.20;;;;;;6108692;23;20398;-82